createdAt,value
2022-09-07T00:00:37.965Z,100877.03
2022-09-07T00:03:05.887Z,100882.19
2022-09-07T00:05:33.479Z,100879.63
2022-09-07T00:08:00.808Z,100883.94
2022-09-07T00:10:28.100Z,100876.22
2022-09-07T00:12:55.223Z,100884.03
2022-09-07T00:15:23.846Z,100884.03
2022-09-07T00:17:50.922Z,100878.81
2022-09-07T00:20:18.219Z,100882.31
2022-09-07T00:22:46.415Z,100888.47
2022-09-07T00:25:13.520Z,100885.91
2022-09-07T00:27:41.479Z,100884.19
2022-09-07T00:30:09.021Z,100880.78
2022-09-07T00:32:36.068Z,100881.72
2022-09-07T00:35:03.473Z,100883.53
2022-09-07T00:37:30.631Z,100883.53
2022-09-07T00:39:57.863Z,100880.97
2022-09-07T00:42:25.045Z,100886.16
2022-09-07T00:45:10.518Z,100878.38
2022-09-07T00:48:18.306Z,100881.00
2022-09-07T00:50:51.397Z,100872.44
2022-09-07T00:53:23.888Z,100886.25
2022-09-07T00:55:52.971Z,100880.19
2022-09-07T00:58:22.220Z,100879.34
2022-09-07T01:00:51.058Z,100879.38
2022-09-07T01:03:23.228Z,100876.81
2022-09-07T01:05:59.577Z,100874.28
2022-09-07T01:08:27.275Z,100887.22
2022-09-07T01:10:55.699Z,100886.34
2022-09-07T01:13:23.227Z,100880.34
2022-09-07T01:16:27.663Z,100890.75
2022-09-07T01:19:09.307Z,100889.00
2022-09-07T01:21:57.821Z,100883.84
2022-09-07T01:24:42.876Z,100879.53
2022-09-07T01:27:47.317Z,100870.97
2022-09-07T01:30:23.280Z,100871.06
2022-09-07T01:33:09.267Z,100868.50
2022-09-07T01:35:48.318Z,100862.50
2022-09-07T01:38:27.997Z,100862.56
2022-09-07T01:41:01.167Z,100859.97
2022-09-07T01:43:45.644Z,100860.84
2022-09-07T01:46:21.348Z,100858.28
2022-09-07T01:48:53.287Z,100857.47
2022-09-07T01:51:23.624Z,100859.22
2022-09-07T01:53:57.021Z,100851.47
2022-09-07T01:56:31.754Z,100854.06
2022-09-07T01:59:10.150Z,100855.84
2022-09-07T02:01:45.958Z,100861.88
2022-09-07T02:04:38.756Z,100862.78
2022-09-07T02:07:17.946Z,100864.53
2022-09-07T02:10:05.877Z,100863.72
2022-09-07T02:12:51.180Z,100861.16
2022-09-07T02:15:25.280Z,100861.16
2022-09-07T02:17:58.746Z,100865.53
2022-09-07T02:20:31.612Z,100857.81
2022-09-07T02:23:02.897Z,100857.84
2022-09-07T02:25:38.102Z,100857.88
2022-09-07T02:28:10.759Z,100844.94
2022-09-07T02:30:38.303Z,100832.00
2022-09-07T02:33:06.196Z,100836.31
2022-09-07T02:35:34.128Z,100840.66
2022-09-07T02:38:05.138Z,100842.38
2022-09-07T02:40:32.788Z,100842.34
2022-09-07T02:43:02.726Z,100837.16
2022-09-07T02:45:52.303Z,100845.84
2022-09-07T02:48:45.341Z,100847.53
2022-09-07T02:51:40.947Z,100844.13
2022-09-07T02:54:44.164Z,100844.13
2022-09-07T02:57:26.600Z,100838.97
2022-09-07T03:00:09.900Z,100835.53
2022-09-07T03:02:58.426Z,100845.06
2022-09-07T03:05:55.416Z,100845.94
2022-09-07T03:08:32.357Z,100845.13
2022-09-07T03:11:00.241Z,100847.69
2022-09-07T03:13:29.690Z,100853.75
2022-09-07T03:15:57.259Z,100846.00
2022-09-07T03:18:25.754Z,100855.50
2022-09-07T03:20:53.707Z,100852.88
2022-09-07T03:23:20.966Z,100852.88
2022-09-07T03:25:49.357Z,100845.97
2022-09-07T03:28:16.508Z,100846.88
2022-09-07T03:30:44.669Z,100835.59
2022-09-07T03:33:12.117Z,100840.78
2022-09-07T03:35:39.236Z,100840.81
2022-09-07T03:38:06.280Z,100830.44
2022-09-07T03:40:33.346Z,100826.09
2022-09-07T03:43:00.427Z,100823.50
2022-09-07T03:45:27.504Z,100821.81
2022-09-07T03:47:54.598Z,100827.88
2022-09-07T03:50:21.686Z,100834.78
2022-09-07T03:52:48.746Z,100839.09
2022-09-07T03:55:15.886Z,100827.88
2022-09-07T03:57:43.794Z,100833.06
2022-09-07T04:00:11.628Z,100830.44
2022-09-07T04:02:41.921Z,100825.28
2022-09-07T04:05:09.495Z,100818.38
2022-09-07T04:07:36.867Z,100815.81
2022-09-07T04:10:04.397Z,100821.84
2022-09-07T04:12:31.473Z,100825.34
2022-09-07T04:14:58.578Z,100814.97
2022-09-07T04:17:25.697Z,100820.13
2022-09-07T04:19:52.686Z,100825.31
2022-09-07T04:22:19.778Z,100826.22
2022-09-07T04:24:46.834Z,100834.84
2022-09-07T04:27:13.958Z,100830.56
2022-09-07T04:29:41.017Z,100820.19
2022-09-07T04:32:11.391Z,100815.03
2022-09-07T04:34:40.683Z,100818.47
2022-09-07T04:37:07.813Z,100808.97
2022-09-07T04:39:35.628Z,100809.84
2022-09-07T04:42:02.789Z,100818.47
2022-09-07T04:44:29.798Z,100832.31
2022-09-07T04:46:57.047Z,100828.00
2022-09-07T04:49:24.109Z,100832.28
2022-09-07T04:51:51.230Z,100798.66
2022-09-07T04:54:18.280Z,100823.63
2022-09-07T04:56:45.470Z,100813.25
2022-09-07T04:59:12.730Z,100825.34
2022-09-07T05:01:40.203Z,100827.03
2022-09-07T05:04:07.267Z,100826.19
2022-09-07T05:06:34.781Z,100827.84
2022-09-07T05:09:01.906Z,100816.63
2022-09-07T05:11:30.103Z,100816.59
2022-09-07T05:13:59.039Z,100796.75
2022-09-07T05:16:27.071Z,100814.81
2022-09-07T05:19:01.363Z,100813.03
2022-09-07T05:21:34.078Z,100813.84
2022-09-07T05:24:01.641Z,100815.50
2022-09-07T05:26:30.854Z,100816.28
2022-09-07T05:31:48.367Z,100817.81
2022-09-07T05:34:31.564Z,100813.44
2022-09-07T05:36:59.617Z,100820.22
2022-09-07T05:39:27.052Z,100815.84
2022-09-07T05:41:54.363Z,100812.34
2022-09-07T05:47:09.054Z,100805.13
2022-09-07T05:49:36.094Z,100801.56
2022-09-07T05:52:03.725Z,100801.44
2022-09-07T05:54:30.754Z,100801.28
2022-09-07T05:56:57.790Z,100802.91
2022-09-07T05:59:24.944Z,100800.06
2022-09-07T06:01:52.011Z,100798.97
2022-09-07T06:04:19.276Z,100800.53
2022-09-07T06:07:04.558Z,100805.50
2022-09-07T06:09:33.667Z,100788.00
2022-09-07T06:12:00.818Z,100793.88
2022-09-07T06:14:27.866Z,100799.75
2022-09-07T06:16:54.956Z,100791.91
2022-09-07T06:19:22.114Z,100795.97
2022-09-07T06:21:49.206Z,100805.28
2022-09-07T06:24:16.392Z,100795.66
2022-09-07T06:26:43.594Z,100801.69
2022-09-07T06:29:10.810Z,100799.03
2022-09-07T06:34:25.843Z,100795.38
2022-09-07T06:36:53.105Z,100802.16
2022-09-07T06:39:20.170Z,100807.28
2022-09-07T06:42:02.582Z,100793.41
2022-09-07T06:44:31.806Z,100795.03
2022-09-07T06:49:29.261Z,100799.69
2022-09-07T06:51:56.454Z,100802.69
2022-09-07T06:57:10.769Z,100803.84
2022-09-07T06:59:38.671Z,100810.38
2022-09-07T07:02:07.296Z,100796.19
2022-09-07T07:04:40.322Z,100788.31
2022-09-07T07:07:14.680Z,100803.72
2022-09-07T07:09:42.280Z,100802.66
2022-09-07T07:12:10.755Z,100794.63
2022-09-07T07:14:39.864Z,100809.06
2022-09-07T07:17:10.527Z,100805.19
2022-09-07T07:19:37.672Z,100803.13
2022-09-07T07:22:18.703Z,100798.44
2022-09-07T07:24:51.909Z,100803.81
2022-09-07T07:27:19.112Z,100790.47
2022-09-07T07:29:46.331Z,100811.28
2022-09-07T07:32:13.456Z,100809.81
2022-09-07T07:34:40.525Z,100806.75
2022-09-07T07:37:07.534Z,100805.00
2022-09-07T07:42:22.122Z,100794.66
2022-09-07T07:44:49.232Z,100801.03
2022-09-07T07:47:16.382Z,100799.44
2022-09-07T07:49:43.547Z,100809.38
2022-09-07T07:54:57.504Z,100813.63
2022-09-07T07:57:24.646Z,100801.06
2022-09-07T07:59:52.085Z,100794.41
2022-09-07T08:02:19.190Z,100798.44
2022-09-07T08:04:46.330Z,100793.34
2022-09-07T08:07:13.510Z,100787.81
2022-09-07T08:09:41.930Z,100787.38
2022-09-07T08:12:11.521Z,100778.34
2022-09-07T08:14:42.935Z,100780.22
2022-09-07T08:17:14.940Z,100776.44
2022-09-07T08:19:42.339Z,100781.69
2022-09-07T08:22:10.974Z,100782.25
2022-09-07T08:24:38.100Z,100779.03
2022-09-07T08:27:05.516Z,100771.81
2022-09-07T08:29:35.207Z,100771.41
2022-09-07T08:32:05.202Z,100769.44
2022-09-07T08:34:35.226Z,100767.03
2022-09-07T08:37:02.260Z,100763.88
2022-09-07T08:39:30.098Z,100766.38
2022-09-07T08:42:03.495Z,100771.00
2022-09-07T08:44:49.030Z,100766.44
2022-09-07T08:47:32.264Z,100756.50
2022-09-07T08:50:33.973Z,100752.63
2022-09-07T08:53:14.604Z,100751.28
2022-09-07T08:55:49.561Z,100740.75
2022-09-07T08:58:48.216Z,100743.41
2022-09-07T09:01:33.290Z,100747.78
2022-09-07T09:04:17.904Z,100741.44
2022-09-07T09:07:00.861Z,100747.31
2022-09-07T09:09:52.038Z,100735.09
2022-09-07T09:12:37.841Z,100738.34
2022-09-07T09:15:32.410Z,100732.47
2022-09-07T09:18:22.280Z,100738.34
2022-09-07T09:20:52.523Z,100734.50
2022-09-07T09:23:24.099Z,100729.91
2022-09-07T09:25:56.860Z,100721.50
2022-09-07T09:28:26.559Z,100728.75
2022-09-07T09:30:56.063Z,100725.22
2022-09-07T09:33:26.229Z,100721.59
2022-09-07T09:35:56.535Z,100719.41
2022-09-07T09:38:29.441Z,100721.59
2022-09-07T09:40:58.448Z,100726.97
2022-09-07T09:43:32.725Z,100728.84
2022-09-07T09:46:17.463Z,100732.25
2022-09-07T09:48:53.867Z,100723.56
2022-09-07T09:54:25.494Z,100718.63
2022-09-07T09:56:53.000Z,100715.63
2022-09-07T10:05:31.351Z,100696.25
2022-09-07T10:07:58.753Z,100692.16
2022-09-07T10:10:27.699Z,100690.19
2022-09-07T10:12:56.164Z,100696.41
2022-09-07T10:15:41.897Z,100696.91
2022-09-07T10:18:30.377Z,100692.34
2022-09-07T10:21:21.049Z,100688.75
2022-09-07T10:23:49.333Z,100692.75
2022-09-07T10:26:32.301Z,100688.38
2022-09-07T10:29:13.183Z,100687.47
2022-09-07T10:32:06.613Z,100689.03
2022-09-07T10:34:56.868Z,100692.13
2022-09-07T10:37:53.111Z,100686.31
2022-09-07T10:40:43.008Z,100685.59
2022-09-07T10:43:22.143Z,100675.84
2022-09-07T10:46:04.838Z,100672.97
2022-09-07T10:48:36.097Z,100671.75
2022-09-07T10:51:14.565Z,100670.88
2022-09-07T10:57:04.075Z,100668.84
2022-09-07T11:03:30.118Z,100662.78
2022-09-07T11:06:15.520Z,100665.31
2022-09-07T11:09:17.348Z,100660.78
2022-09-07T11:12:04.282Z,100650.59
2022-09-07T11:14:55.050Z,100661.16
2022-09-07T11:17:23.745Z,100657.38
2022-09-07T11:20:09.911Z,100646.19
2022-09-07T11:22:47.722Z,100658.16
2022-09-07T11:25:35.607Z,100650.53
2022-09-07T11:28:13.422Z,100655.22
2022-09-07T11:30:50.051Z,100658.97
2022-09-07T11:33:24.989Z,100657.69
2022-09-07T11:36:02.438Z,100652.59
2022-09-07T11:38:39.537Z,100646.56
2022-09-07T11:41:15.453Z,100649.97
2022-09-07T11:43:47.312Z,100637.22
2022-09-07T11:46:24.283Z,100638.63
2022-09-07T11:48:54.906Z,100645.25
2022-09-07T11:51:39.890Z,100634.66
2022-09-07T11:54:43.992Z,100634.66
2022-09-07T11:57:38.895Z,100627.56
2022-09-07T12:00:11.408Z,100637.00
2022-09-07T12:03:17.973Z,100633.47
2022-09-07T12:06:25.778Z,100626.28
2022-09-07T12:09:07.922Z,100625.75
2022-09-07T12:12:12.586Z,100627.44
2022-09-07T12:15:04.380Z,100622.16
2022-09-07T12:18:01.078Z,100609.72
2022-09-07T12:20:48.895Z,100613.22
2022-09-07T12:23:15.862Z,100617.47
2022-09-07T12:25:45.228Z,100621.81
2022-09-07T12:28:24.431Z,100629.88
2022-09-07T12:31:05.933Z,100623.44
2022-09-07T12:33:36.044Z,100619.09
2022-09-07T12:36:28.935Z,100617.81
2022-09-07T12:39:20.980Z,100601.59
2022-09-07T12:42:31.948Z,100601.09
2022-09-07T12:44:38.369Z,100596.84
2022-09-07T12:47:30.118Z,100591.22
2022-09-07T12:50:06.328Z,100587.22
2022-09-07T12:52:36.257Z,100596.88
2022-09-07T12:56:15.504Z,100582.78
2022-09-07T12:58:25.281Z,100570.13
2022-09-07T13:01:10.792Z,100595.19
2022-09-07T13:03:56.377Z,100584.75
2022-09-07T13:07:10.745Z,100587.66
2022-09-07T13:09:41.919Z,100581.97
2022-09-07T13:15:44.009Z,100581.66
2022-09-07T13:18:32.640Z,100573.31
2022-09-07T13:21:08.396Z,100571.09
2022-09-07T13:23:49.608Z,100567.50
2022-09-07T13:26:55.076Z,100568.19
2022-09-07T13:29:31.736Z,100568.38
2022-09-07T13:33:07.938Z,100569.38
2022-09-07T13:35:18.418Z,100565.47
2022-09-07T13:37:59.239Z,100557.28
2022-09-07T13:40:32.490Z,100560.19
2022-09-07T13:43:01.068Z,100569.88
2022-09-07T13:45:36.899Z,100559.47
2022-09-07T13:48:25.449Z,100559.34
2022-09-07T13:51:17.155Z,100562.03
2022-09-07T13:53:56.315Z,100561.66
2022-09-07T13:56:47.970Z,100563.06
2022-09-07T13:59:21.725Z,100571.44
2022-09-07T14:01:50.778Z,100566.66
2022-09-07T14:04:20.617Z,100568.69
2022-09-07T14:06:47.650Z,100569.84
2022-09-07T14:09:16.279Z,100563.81
2022-09-07T14:11:56.879Z,100561.19
2022-09-07T14:14:29.737Z,100546.53
2022-09-07T14:17:04.763Z,100548.41
2022-09-07T14:19:42.576Z,100553.66
2022-09-07T14:22:22.056Z,100543.28
2022-09-07T14:24:53.499Z,100538.34
2022-09-07T14:27:39.558Z,100538.34
2022-09-07T14:30:19.732Z,100535.72
2022-09-07T14:32:53.400Z,100537.25
2022-09-07T14:35:23.581Z,100524.09
2022-09-07T14:37:51.269Z,100529.34
2022-09-07T14:40:22.799Z,100522.41
2022-09-07T14:42:51.216Z,100524.25
2022-09-07T14:45:31.066Z,100534.94
2022-09-07T14:47:58.608Z,100528.16
2022-09-07T14:50:25.524Z,100523.03
2022-09-07T14:55:44.479Z,100524.88
2022-09-07T14:58:14.235Z,100521.63
2022-09-07T15:03:59.286Z,100516.03
2022-09-07T15:09:36.415Z,100515.56
2022-09-07T15:12:09.437Z,100517.56
2022-09-07T15:14:36.626Z,100517.72
2022-09-07T15:19:51.345Z,100511.22
2022-09-07T15:22:19.113Z,100514.78
2022-09-07T15:24:49.992Z,100520.16
2022-09-07T15:27:21.928Z,100516.78
2022-09-07T15:29:49.073Z,100509.81
2022-09-07T15:32:18.196Z,100508.25
2022-09-07T15:34:45.578Z,100503.00
2022-09-07T15:40:01.473Z,100508.56
2022-09-07T15:45:16.628Z,100496.78
2022-09-07T15:47:48.171Z,100493.53
2022-09-07T15:50:18.699Z,100495.53
2022-09-07T15:52:46.378Z,100504.50
2022-09-07T15:55:14.457Z,100508.19
2022-09-07T15:57:59.356Z,100504.91
2022-09-07T16:00:32.119Z,100519.22
2022-09-07T16:03:08.102Z,100509.16
2022-09-07T16:05:36.081Z,100504.41
2022-09-07T16:10:55.689Z,100499.50
2022-09-07T16:13:24.549Z,100489.97
2022-09-07T16:15:52.084Z,100492.84
2022-09-07T16:18:19.373Z,100497.34
2022-09-07T16:20:47.294Z,100486.16
2022-09-07T16:23:16.829Z,100491.53
2022-09-07T16:25:57.310Z,100483.81
2022-09-07T16:28:24.734Z,100483.84
2022-09-07T16:30:51.810Z,100476.06
2022-09-07T16:33:18.956Z,100477.91
2022-09-07T16:35:59.476Z,100479.59
2022-09-07T16:41:20.639Z,100479.75
2022-09-07T16:43:47.947Z,100485.00
2022-09-07T16:46:17.770Z,100485.13
2022-09-07T16:48:45.587Z,100477.44
2022-09-07T16:51:14.858Z,100470.84
2022-09-07T16:53:42.886Z,100477.78
2022-09-07T16:56:16.984Z,100485.16
2022-09-07T16:58:46.300Z,100478.41
2022-09-07T17:01:16.230Z,100481.22
2022-09-07T17:03:44.077Z,100476.34
2022-09-07T17:06:12.795Z,100485.16
2022-09-07T17:08:40.735Z,100481.88
2022-09-07T17:11:10.611Z,100470.06
2022-09-07T17:13:39.566Z,100481.53
2022-09-07T17:16:12.044Z,100470.47
2022-09-07T17:21:36.630Z,100483.16
2022-09-07T17:24:05.644Z,100471.34
2022-09-07T17:26:32.969Z,100481.97
2022-09-07T17:29:01.123Z,100480.50
2022-09-07T17:34:19.884Z,100484.41
2022-09-07T17:36:47.646Z,100484.78
2022-09-07T17:39:17.735Z,100487.53
2022-09-07T17:41:47.184Z,100486.81
2022-09-07T17:44:14.510Z,100490.47
2022-09-07T17:46:41.635Z,100488.91
2022-09-07T17:49:16.888Z,100496.06
2022-09-07T17:51:45.522Z,100499.00
2022-09-07T17:54:15.907Z,100513.84
2022-09-07T17:56:43.422Z,100518.53
2022-09-07T18:01:58.582Z,100516.28
2022-09-07T18:04:26.161Z,100505.22
2022-09-07T18:06:54.522Z,100513.09
2022-09-07T18:09:22.044Z,100504.66
2022-09-07T18:11:50.297Z,100522.06
2022-09-07T18:14:19.518Z,100522.31
2022-09-07T18:16:50.110Z,100519.00
2022-09-07T18:19:18.703Z,100519.22
2022-09-07T18:21:48.104Z,100513.22
2022-09-07T18:24:18.899Z,100502.97
2022-09-07T18:26:51.796Z,100502.25
2022-09-07T18:29:29.513Z,100499.78
2022-09-07T18:31:59.639Z,100505.94
2022-09-07T18:34:28.787Z,100511.19
2022-09-07T18:36:56.153Z,100509.59
2022-09-07T18:39:23.326Z,100520.94
2022-09-07T18:41:50.582Z,100513.22
2022-09-07T18:47:06.599Z,100502.19
2022-09-07T18:49:34.380Z,100503.38
2022-09-07T18:54:50.319Z,100521.69
2022-09-07T18:57:17.506Z,100524.31
2022-09-07T18:59:44.830Z,100519.28
2022-09-07T19:02:12.405Z,100517.59
2022-09-07T19:07:29.934Z,100519.41
2022-09-07T19:09:58.371Z,100519.50
2022-09-07T19:12:25.421Z,100510.84
2022-09-07T19:14:52.527Z,100517.84
2022-09-07T19:17:19.777Z,100509.34
2022-09-07T19:19:47.279Z,100505.94
2022-09-07T19:22:14.391Z,100504.31
2022-09-07T19:24:41.470Z,100510.47
2022-09-07T19:27:08.457Z,100513.13
2022-09-07T19:29:35.681Z,100509.66
2022-09-07T19:32:07.006Z,100505.28
2022-09-07T19:34:36.573Z,100502.72
2022-09-07T19:37:06.987Z,100495.88
2022-09-07T19:39:33.964Z,100489.13
2022-09-07T19:42:02.748Z,100486.72
2022-09-07T19:44:30.028Z,100499.88
2022-09-07T19:46:57.266Z,100499.88
2022-09-07T19:49:24.543Z,100498.19
2022-09-07T19:51:52.294Z,100486.00
2022-09-07T19:54:19.624Z,100500.00
2022-09-07T19:56:46.964Z,100507.00
2022-09-07T19:59:14.711Z,100499.25
2022-09-07T20:01:46.479Z,100485.47
2022-09-07T20:04:20.342Z,100493.25
2022-09-07T20:06:50.386Z,100505.44
2022-09-07T20:09:19.093Z,100511.50
2022-09-07T20:11:47.846Z,100503.69
2022-09-07T20:14:18.573Z,100506.31
2022-09-07T20:16:45.708Z,100500.38
2022-09-07T20:19:16.390Z,100502.09
2022-09-07T20:21:43.688Z,100496.06
2022-09-07T20:24:14.795Z,100504.00
2022-09-07T20:26:41.897Z,100500.53
2022-09-07T20:29:27.682Z,100496.25
2022-09-07T20:31:59.314Z,100491.16
2022-09-07T20:34:27.588Z,100491.22
2022-09-07T20:36:55.184Z,100478.31
2022-09-07T20:39:22.288Z,100485.31
2022-09-07T20:41:49.476Z,100490.75
2022-09-07T20:44:17.379Z,100493.31
2022-09-07T20:46:44.643Z,100494.38
2022-09-07T20:49:11.832Z,100476.25
2022-09-07T20:51:39.132Z,100481.41
2022-09-07T20:54:07.373Z,100478.81
2022-09-07T20:56:34.893Z,100478.88
2022-09-07T20:59:03.753Z,100481.56
2022-09-07T21:01:32.310Z,100484.25
2022-09-07T21:04:02.152Z,100493.03
2022-09-07T21:06:31.089Z,100496.59
2022-09-07T21:08:58.635Z,100494.91
2022-09-07T21:11:29.281Z,100491.50
2022-09-07T21:13:58.514Z,100480.22
2022-09-07T21:16:26.607Z,100476.84
2022-09-07T21:18:56.547Z,100477.81
2022-09-07T21:21:24.961Z,100479.59
2022-09-07T21:24:00.289Z,100470.97
2022-09-07T21:26:28.667Z,100477.94
2022-09-07T21:28:57.467Z,100485.81
2022-09-07T21:31:25.569Z,100491.06
2022-09-07T21:33:57.853Z,100487.63
2022-09-07T21:36:25.758Z,100482.53
2022-09-07T21:38:54.453Z,100486.78
2022-09-07T21:41:23.318Z,100492.97
2022-09-07T21:43:55.481Z,100476.53
2022-09-07T21:46:23.085Z,100485.28
2022-09-07T21:48:50.236Z,100492.25
2022-09-07T21:51:17.734Z,100490.50
2022-09-07T21:53:44.780Z,100489.59
2022-09-07T21:56:14.530Z,100489.69
2022-09-07T21:58:43.850Z,100490.59
2022-09-07T22:01:17.135Z,100489.78
2022-09-07T22:03:46.656Z,100484.59
2022-09-07T22:06:15.073Z,100492.38
2022-09-07T22:08:42.916Z,100484.56
2022-09-07T22:11:13.787Z,100487.25
2022-09-07T22:13:41.606Z,100493.31
2022-09-07T22:16:09.271Z,100483.91
2022-09-07T22:18:38.108Z,100489.13
2022-09-07T22:21:15.752Z,100485.69
2022-09-07T22:23:45.670Z,100477.06
2022-09-07T22:26:14.406Z,100483.22
2022-09-07T22:28:42.234Z,100476.31
2022-09-07T22:31:15.511Z,100472.03
2022-09-07T22:33:43.568Z,100459.19
2022-09-07T22:36:15.160Z,100468.59
2022-09-07T22:38:44.043Z,100470.31
2022-09-07T22:41:22.305Z,100478.94
2022-09-07T22:43:51.136Z,100470.31
2022-09-07T22:46:20.527Z,100478.88
2022-09-07T22:48:48.518Z,100470.13
2022-09-07T22:51:16.558Z,100465.75
2022-09-07T22:53:44.699Z,100466.53
2022-09-07T22:56:20.529Z,100457.81
2022-09-07T22:58:50.228Z,100457.91
2022-09-07T23:01:17.989Z,100447.47
2022-09-07T23:03:45.713Z,100442.28
2022-09-07T23:06:23.391Z,100438.75
2022-09-07T23:08:51.600Z,100448.38
2022-09-07T23:11:20.030Z,100442.34
2022-09-07T23:13:51.261Z,100449.28
2022-09-07T23:16:18.494Z,100447.56
2022-09-07T23:18:46.293Z,100435.41
2022-09-07T23:21:13.379Z,100435.41
2022-09-07T23:23:40.638Z,100432.88
2022-09-07T23:26:07.744Z,100423.47
2022-09-07T23:28:35.149Z,100419.94
2022-09-07T23:31:02.454Z,100413.09
2022-09-07T23:33:30.581Z,100421.81
2022-09-07T23:36:04.698Z,100414.13
2022-09-07T23:38:32.615Z,100422.84
2022-09-07T23:41:00.380Z,100426.47
2022-09-07T23:43:29.090Z,100410.25
2022-09-07T23:45:56.690Z,100434.31
2022-09-07T23:48:24.166Z,100423.03
2022-09-07T23:50:51.629Z,100425.56
2022-09-07T23:53:19.261Z,100411.72
2022-09-07T23:55:50.386Z,100411.78
2022-09-07T23:58:18.148Z,100408.38
